Time;durP1;ratioP1;P1;durP2;ratioP2;P2;SDS_P1;SDS_P2;PMS_P1;PMS_P2;Temp;Humidity;BMP_temperature;BMP_pressure;BME280_temperature;BME280_humidity;BME280_pressure;Samples;Min_cycle;Max_cycle;Signal;HPM_P1;HPM_P2
2021/08/25 00:01:58;;;;;;;4.15;2.13;;;18.30;98.90;;;;;;5104414;28;20095;-80
2021/08/25 00:04:24;;;;;;;2.50;1.80;;;18.20;99.10;;;;;;5104209;28;20047;-80
2021/08/25 00:06:49;;;;;;;6.47;2.15;;;18.20;99.00;;;;;;5104711;28;20227;-80
2021/08/25 00:09:15;;;;;;;3.63;2.05;;;18.20;99.20;;;;;;5104775;28;20123;-80
2021/08/25 00:11:41;;;;;;;5.60;2.25;;;18.10;99.20;;;;;;5104895;28;20034;-80
2021/08/25 00:14:07;;;;;;;3.58;2.22;;;18.10;99.10;;;;;;5104662;28;20020;-80
2021/08/25 00:16:32;;;;;;;3.00;1.88;;;18.10;99.30;;;;;;5104845;28;20047;-80
2021/08/25 00:18:58;;;;;;;4.60;2.28;;;18.10;99.00;;;;;;5104857;28;20316;-80
2021/08/25 00:21:24;;;;;;;3.78;2.10;;;18.10;99.20;;;;;;5104180;28;20055;-80
2021/08/25 00:23:49;;;;;;;4.57;2.10;;;18.00;99.50;;;;;;5104738;28;20023;-80
2021/08/25 00:26:15;;;;;;;3.17;2.00;;;18.00;99.40;;;;;;5104069;28;20020;-80
2021/08/25 00:28:41;;;;;;;5.47;2.55;;;18.00;99.50;;;;;;5104060;28;20016;-81
2021/08/25 00:31:06;;;;;;;4.50;2.40;;;18.00;99.50;;;;;;5085701;28;20059;-80
2021/08/25 00:33:32;;;;;;;4.50;2.17;;;17.90;99.90;;;;;;5083361;28;20020;-81
2021/08/25 00:35:59;;;;;;;4.53;2.28;;;17.90;99.80;;;;;;5082007;28;20027;-81
2021/08/25 00:38:24;;;;;;;3.95;1.95;;;17.80;99.60;;;;;;5083440;28;20019;-80
2021/08/25 00:40:50;;;;;;;3.80;2.40;;;17.80;99.90;;;;;;5083164;28;20032;-80
2021/08/25 00:43:16;;;;;;;5.80;2.00;;;17.80;99.90;;;;;;5083940;28;20076;-80
2021/08/25 00:45:45;;;;;;;4.75;1.88;;;17.80;99.70;;;;;;5083497;28;20137;-80
2021/08/25 00:48:15;;;;;;;10.70;2.10;;;17.80;99.80;;;;;;5082944;28;20021;-80
2021/08/25 00:50:41;;;;;;;4.05;2.03;;;17.80;99.80;;;;;;5082633;28;20020;-80
2021/08/25 00:53:07;;;;;;;7.78;2.25;;;17.70;99.80;;;;;;5082902;28;20060;-80
2021/08/25 00:55:43;;;;;;;4.70;2.10;;;17.70;99.90;;;;;;5082757;28;20341;-80
2021/08/25 00:58:09;;;;;;;3.63;1.95;;;17.60;99.90;;;;;;5082889;28;20285;-80
2021/08/25 01:00:41;;;;;;;4.30;2.10;;;17.50;99.90;;;;;;5082176;28;20085;-80
2021/08/25 01:03:14;;;;;;;4.10;2.10;;;17.50;99.90;;;;;;5082494;28;20024;-80
2021/08/25 01:05:42;;;;;;;3.60;2.20;;;17.50;99.90;;;;;;5082468;28;20055;-80
2021/08/25 01:08:10;;;;;;;3.25;1.90;;;17.40;99.90;;;;;;5063481;28;20189;-80
2021/08/25 01:10:36;;;;;;;4.53;2.28;;;17.50;99.90;;;;;;5082635;28;20036;-80
2021/08/25 01:13:07;;;;;;;6.00;2.00;;;17.40;99.90;;;;;;5083384;28;20320;-79
2021/08/25 01:15:38;;;;;;;3.60;1.98;;;17.40;99.90;;;;;;5083191;28;20058;-80
2021/08/25 01:18:06;;;;;;;6.07;2.00;;;17.40;99.90;;;;;;5071822;28;20635;-79
2021/08/25 01:20:33;;;;;;;4.70;2.00;;;17.40;99.90;;;;;;5068881;28;20032;-80
2021/08/25 01:22:59;;;;;;;4.65;2.10;;;17.40;99.90;;;;;;5077018;28;20017;-80
2021/08/25 01:25:27;;;;;;;6.68;2.15;;;17.30;99.90;;;;;;5075035;28;20016;-80
2021/08/25 01:28:00;;;;;;;4.22;2.20;;;17.30;99.90;;;;;;5082466;28;20025;-80
2021/08/25 01:30:29;;;;;;;4.30;1.77;;;17.30;99.90;;;;;;5082581;28;20048;-80
2021/08/25 01:32:59;;;;;;;6.55;2.05;;;17.20;99.90;;;;;;5082359;28;20248;-80
2021/08/25 01:35:38;;;;;;;4.40;1.73;;;17.10;99.90;;;;;;5082062;28;20025;-80
2021/08/25 01:38:29;;;;;;;6.25;2.05;;;17.10;99.90;;;;;;5079304;28;20044;-80
2021/08/25 01:40:55;;;;;;;3.45;1.95;;;17.00;99.90;;;;;;5045246;28;20021;-80
2021/08/25 01:43:21;;;;;;;4.88;2.00;;;17.00;99.90;;;;;;5066072;28;20104;-80
2021/08/25 01:45:47;;;;;;;3.88;2.10;;;17.00;99.90;;;;;;5081028;28;20008;-80
2021/08/25 01:48:13;;;;;;;4.63;2.28;;;17.00;99.90;;;;;;5068457;28;20049;-80
2021/08/25 01:50:39;;;;;;;4.72;2.10;;;17.00;99.90;;;;;;5082245;28;20380;-80
2021/08/25 01:53:05;;;;;;;5.00;2.20;;;16.90;99.90;;;;;;5082184;28;20096;-80
2021/08/25 01:55:31;;;;;;;3.63;2.38;;;16.90;99.90;;;;;;5074884;28;20028;-80
2021/08/25 01:57:57;;;;;;;3.67;1.90;;;16.80;99.90;;;;;;5074685;28;20240;-80
2021/08/25 02:00:22;;;;;;;5.72;2.60;;;16.80;99.90;;;;;;5081425;28;20316;-80
2021/08/25 02:02:48;;;;;;;4.60;2.05;;;16.80;99.90;;;;;;5082186;28;20017;-80
2021/08/25 02:05:14;;;;;;;4.47;2.10;;;16.80;99.90;;;;;;5081400;28;20028;-80
2021/08/25 02:07:39;;;;;;;5.35;2.33;;;16.80;99.90;;;;;;5081083;28;20031;-80
2021/08/25 02:10:06;;;;;;;4.57;2.13;;;16.80;99.90;;;;;;5081153;28;20024;-80
2021/08/25 02:12:31;;;;;;;5.18;2.42;;;16.70;99.90;;;;;;5072300;28;20317;-80
2021/08/25 02:14:57;;;;;;;4.38;1.90;;;16.70;99.90;;;;;;5061868;28;20102;-80
2021/08/25 02:17:23;;;;;;;3.42;1.92;;;16.60;99.90;;;;;;5065476;28;20025;-80
2021/08/25 02:19:48;;;;;;;4.93;2.30;;;16.60;99.90;;;;;;5081257;28;20059;-80
2021/08/25 02:22:14;;;;;;;5.15;2.40;;;16.60;99.90;;;;;;5067651;28;20020;-80
2021/08/25 02:24:40;;;;;;;3.35;2.03;;;16.50;99.90;;;;;;5081435;28;20247;-80
2021/08/25 02:27:05;;;;;;;4.60;2.10;;;16.50;99.90;;;;;;5063478;28;20095;-79
2021/08/25 02:29:31;;;;;;;3.75;2.15;;;16.50;99.90;;;;;;5081809;28;20261;-80
2021/08/25 02:31:57;;;;;;;5.22;2.20;;;16.40;99.90;;;;;;5069298;28;20381;-82
2021/08/25 02:34:22;;;;;;;4.00;2.20;;;16.40;99.90;;;;;;5101493;28;20028;-79
2021/08/25 02:36:48;;;;;;;4.30;2.10;;;16.40;99.90;;;;;;5101356;28;20212;-79
2021/08/25 02:39:13;;;;;;;4.72;2.28;;;16.30;99.90;;;;;;5101099;28;20327;-80
2021/08/25 02:41:39;;;;;;;3.28;1.98;;;16.30;99.90;;;;;;5101495;28;20027;-80
2021/08/25 02:44:06;;;;;;;8.15;2.38;;;16.20;99.90;;;;;;5100418;28;20051;-80
2021/08/25 02:46:32;;;;;;;5.68;2.35;;;16.20;99.90;;;;;;5101493;28;20024;-80
2021/08/25 02:48:58;;;;;;;5.93;2.20;;;16.20;99.90;;;;;;5101640;28;20023;-80
2021/08/25 02:51:23;;;;;;;5.65;2.40;;;16.20;99.90;;;;;;5101592;28;20256;-80
2021/08/25 02:53:49;;;;;;;6.10;2.17;;;16.10;99.90;;;;;;5101076;28;20353;-80
2021/08/25 02:56:15;;;;;;;4.53;2.38;;;16.20;99.90;;;;;;5093346;28;20032;-80
2021/08/25 02:58:40;;;;;;;5.18;2.00;;;16.10;99.90;;;;;;5094494;28;20024;-80
2021/08/25 03:01:07;;;;;;;5.80;2.00;;;16.00;99.90;;;;;;5100801;28;20320;-80
2021/08/25 03:03:33;;;;;;;4.50;2.40;;;16.00;99.90;;;;;;5100842;28;20245;-80
2021/08/25 03:05:59;;;;;;;4.25;1.90;;;15.90;99.90;;;;;;5100703;28;20233;-80
2021/08/25 03:08:24;;;;;;;3.92;2.20;;;15.90;99.90;;;;;;5100803;28;20315;-80
2021/08/25 03:10:50;;;;;;;4.80;2.50;;;15.90;99.90;;;;;;5100386;28;20107;-80
2021/08/25 03:13:16;;;;;;;3.88;2.28;;;15.90;99.90;;;;;;5099907;28;20024;-80
2021/08/25 03:15:41;;;;;;;5.43;2.63;;;15.90;99.90;;;;;;5101273;28;20138;-80
2021/08/25 03:18:08;;;;;;;4.72;2.00;;;15.90;99.90;;;;;;5100938;28;20248;-80
2021/08/25 03:20:33;;;;;;;5.05;2.20;;;15.90;99.90;;;;;;5100899;28;20095;-80
2021/08/25 03:22:59;;;;;;;5.10;2.45;;;15.90;99.90;;;;;;5101022;28;20024;-80
2021/08/25 03:25:25;;;;;;;5.57;2.20;;;15.80;99.90;;;;;;5101319;28;20273;-80
2021/08/25 03:27:50;;;;;;;3.47;2.63;;;15.80;99.90;;;;;;5082869;28;20024;-80
2021/08/25 03:30:16;;;;;;;5.68;2.63;;;15.80;99.90;;;;;;5089921;28;20197;-80
2021/08/25 03:32:42;;;;;;;3.50;2.13;;;15.70;99.90;;;;;;5080140;28;20051;-80
2021/08/25 03:35:09;;;;;;;4.20;2.17;;;15.70;99.90;;;;;;5080885;28;20264;-80
2021/08/25 03:37:34;;;;;;;6.40;2.50;;;15.60;99.90;;;;;;5062855;28;20104;-80
2021/08/25 03:40:00;;;;;;;5.47;2.22;;;15.60;99.90;;;;;;5062885;28;20209;-80
2021/08/25 03:42:26;;;;;;;6.90;2.38;;;15.70;99.90;;;;;;5069847;28;20313;-80
2021/08/25 03:44:52;;;;;;;4.93;2.25;;;15.70;99.90;;;;;;5080716;28;20028;-81
2021/08/25 03:47:17;;;;;;;3.47;1.80;;;15.70;99.90;;;;;;5055156;28;20025;-80
2021/08/25 03:49:43;;;;;;;3.78;2.10;;;15.70;99.90;;;;;;5074315;28;20024;-80
2021/08/25 03:52:10;;;;;;;4.80;2.60;;;15.60;99.90;;;;;;5080412;28;20210;-80
2021/08/25 03:54:36;;;;;;;4.93;2.20;;;15.60;99.90;;;;;;5080837;28;20021;-80
2021/08/25 03:57:01;;;;;;;3.92;2.22;;;15.60;99.90;;;;;;5080734;28;20135;-80
2021/08/25 03:59:27;;;;;;;5.30;2.25;;;15.60;99.90;;;;;;5080306;28;20048;-80
2021/08/25 04:01:53;;;;;;;6.03;2.20;;;15.60;99.90;;;;;;5080710;28;20016;-80
2021/08/25 04:04:18;;;;;;;7.68;2.60;;;15.60;99.90;;;;;;5080371;28;20039;-80
2021/08/25 04:06:44;;;;;;;4.78;2.33;;;15.60;99.90;;;;;;5080794;28;20105;-80
2021/08/25 04:09:10;;;;;;;4.97;2.10;;;15.60;99.90;;;;;;5062836;28;20043;-83
2021/08/25 04:11:36;;;;;;;4.22;2.60;;;15.60;99.90;;;;;;5080440;28;20428;-80
2021/08/25 04:14:02;;;;;;;6.07;2.42;;;15.50;99.90;;;;;;5079219;28;20016;-80
2021/08/25 04:16:29;;;;;;;4.18;2.30;;;15.50;99.90;;;;;;5048834;28;20070;-79
2021/08/25 04:18:56;;;;;;;3.67;2.13;;;15.50;99.90;;;;;;5081022;28;20305;-80
2021/08/25 04:21:22;;;;;;;3.47;2.30;;;15.50;99.90;;;;;;5062245;28;20339;-80
2021/08/25 04:23:48;;;;;;;6.55;2.30;;;15.40;99.90;;;;;;5080051;28;20024;-80
2021/08/25 04:26:14;;;;;;;7.18;2.85;;;15.40;99.90;;;;;;5078993;28;20024;-80
2021/08/25 04:28:40;;;;;;;6.53;2.45;;;15.30;99.90;;;;;;5067393;28;20068;-80
2021/08/25 04:31:09;;;;;;;3.72;2.30;;;15.40;99.90;;;;;;5094610;28;20224;-80
2021/08/25 04:33:36;;;;;;;3.53;2.13;;;15.40;99.90;;;;;;5098871;28;20324;-80
2021/08/25 04:36:03;;;;;;;5.35;2.70;;;15.30;99.90;;;;;;5102892;28;20317;-79
2021/08/25 04:38:30;;;;;;;3.95;2.58;;;15.30;99.90;;;;;;5103673;28;20088;-79
2021/08/25 04:40:58;;;;;;;6.65;2.88;;;15.20;99.90;;;;;;5104453;28;20081;-80
2021/08/25 04:43:27;;;;;;;5.68;2.85;;;15.20;99.90;;;;;;5099225;28;20384;-80
2021/08/25 04:45:53;;;;;;;3.53;2.58;;;15.20;99.90;;;;;;5083252;28;20095;-80
2021/08/25 04:48:19;;;;;;;4.72;2.58;;;15.20;99.90;;;;;;5086720;28;20033;-79
2021/08/25 04:50:44;;;;;;;5.65;2.47;;;15.20;99.90;;;;;;5098951;28;20043;-79
2021/08/25 04:53:10;;;;;;;6.47;2.53;;;15.20;99.90;;;;;;5088928;28;20083;-79
2021/08/25 04:55:37;;;;;;;3.90;2.28;;;15.20;99.90;;;;;;5103481;28;20068;-80
2021/08/25 04:58:04;;;;;;;6.13;2.90;;;15.10;99.90;;;;;;5103445;28;20084;-80
2021/08/25 05:00:29;;;;;;;5.05;2.60;;;15.10;99.90;;;;;;5096514;28;20024;-80
2021/08/25 05:02:55;;;;;;;4.43;2.38;;;15.10;99.90;;;;;;5094409;28;20095;-79
2021/08/25 05:05:21;;;;;;;5.10;2.45;;;15.20;99.90;;;;;;5093980;28;20500;-80
2021/08/25 05:07:46;;;;;;;7.35;2.85;;;15.20;99.90;;;;;;5101267;28;20023;-80
2021/08/25 05:10:13;;;;;;;3.90;2.65;;;15.20;99.90;;;;;;5103469;28;20204;-80
2021/08/25 05:12:39;;;;;;;4.03;2.95;;;15.20;99.90;;;;;;5095080;28;20042;-80
2021/08/25 05:15:08;;;;;;;4.88;2.55;;;15.30;99.90;;;;;;5093085;28;20253;-80
2021/08/25 05:17:34;;;;;;;5.35;2.78;;;15.20;99.90;;;;;;5103643;28;20015;-80
2021/08/25 05:20:00;;;;;;;4.18;2.60;;;15.30;99.90;;;;;;5102811;28;20031;-80
2021/08/25 05:22:26;;;;;;;4.45;2.67;;;15.20;99.90;;;;;;5102830;28;20065;-80
2021/08/25 05:24:52;;;;;;;3.33;2.80;;;15.20;99.90;;;;;;5090753;28;20036;-81
2021/08/25 05:27:17;;;;;;;5.25;2.60;;;15.20;99.90;;;;;;5092085;28;20031;-81
2021/08/25 05:29:43;;;;;;;7.03;2.67;;;15.20;99.90;;;;;;5086342;28;20051;-80
2021/08/25 05:32:09;;;;;;;5.18;2.40;;;15.20;99.90;;;;;;5052750;28;20352;-80
2021/08/25 05:34:34;;;;;;;5.32;3.20;;;15.20;99.90;;;;;;5071885;28;20020;-81
2021/08/25 05:37:00;;;;;;;4.88;3.08;;;15.30;99.90;;;;;;5075340;28;20017;-80
2021/08/25 05:39:25;;;;;;;7.03;2.75;;;15.20;99.90;;;;;;5072737;28;20020;-80
2021/08/25 05:41:51;;;;;;;6.47;2.80;;;15.30;99.90;;;;;;5086245;28;20039;-82
2021/08/25 05:44:17;;;;;;;5.72;2.53;;;15.30;99.90;;;;;;5090762;28;20024;-80
2021/08/25 05:46:42;;;;;;;9.68;3.20;;;15.40;99.90;;;;;;5074622;28;20500;-80
2021/08/25 05:49:08;;;;;;;5.13;2.90;;;15.40;99.90;;;;;;5053031;28;20017;-80
2021/08/25 05:51:34;;;;;;;4.25;2.80;;;15.40;99.90;;;;;;5070919;28;20110;-80
2021/08/25 05:53:59;;;;;;;7.80;2.97;;;15.40;99.90;;;;;;5070828;28;20044;-80
2021/08/25 05:56:25;;;;;;;10.98;4.00;;;15.40;99.90;;;;;;5070643;28;20056;-80
2021/08/25 05:58:50;;;;;;;6.40;2.70;;;15.40;99.90;;;;;;5071259;28;20123;-81
2021/08/25 06:01:16;;;;;;;9.95;3.15;;;15.50;99.90;;;;;;5070691;28;20025;-80
2021/08/25 06:03:42;;;;;;;4.97;2.78;;;15.60;99.90;;;;;;5071216;28;20024;-81
2021/08/25 06:06:10;;;;;;;5.35;2.80;;;15.60;99.90;;;;;;5070875;28;20027;-81
2021/08/25 06:08:36;;;;;;;4.82;2.55;;;15.60;99.90;;;;;;5071274;28;20012;-81
2021/08/25 06:11:02;;;;;;;3.67;2.47;;;15.60;99.90;;;;;;5070815;28;20098;-81
2021/08/25 06:13:27;;;;;;;5.68;3.20;;;15.60;99.90;;;;;;5061628;28;20371;-83
2021/08/25 06:15:54;;;;;;;6.55;2.90;;;15.70;99.90;;;;;;5049618;28;20104;-81
2021/08/25 06:18:19;;;;;;;5.13;2.90;;;15.80;99.90;;;;;;5058858;28;20047;-81
2021/08/25 06:20:45;;;;;;;4.35;2.70;;;15.80;99.90;;;;;;5070479;28;20544;-81
2021/08/25 06:23:11;;;;;;;6.82;2.88;;;15.80;99.90;;;;;;5060892;28;20520;-81
2021/08/25 06:25:36;;;;;;;5.80;2.70;;;16.00;99.90;;;;;;5065751;28;20021;-81
2021/08/25 06:28:02;;;;;;;5.35;2.95;;;16.00;99.90;;;;;;5062071;28;20420;-81
2021/08/25 06:30:29;;;;;;;8.68;3.47;;;16.10;99.90;;;;;;5068648;28;20045;-81
2021/08/25 06:32:55;;;;;;;5.60;3.03;;;16.10;99.90;;;;;;5055651;28;20028;-81
2021/08/25 06:35:21;;;;;;;7.53;2.67;;;16.20;99.90;;;;;;5069035;28;20052;-81
2021/08/25 06:37:47;;;;;;;7.38;2.75;;;16.20;99.90;;;;;;5069584;28;20048;-81
2021/08/25 06:40:13;;;;;;;5.10;3.10;;;16.20;99.90;;;;;;5042617;28;20025;-81
2021/08/25 06:42:39;;;;;;;6.60;2.85;;;16.30;99.90;;;;;;5065511;28;20459;-81
2021/08/25 06:45:06;;;;;;;6.30;3.20;;;16.40;99.90;;;;;;5068869;28;20020;-81
2021/08/25 06:47:32;;;;;;;6.43;2.83;;;16.40;99.90;;;;;;5069859;28;20024;-81
2021/08/25 06:49:57;;;;;;;4.25;2.70;;;16.50;99.90;;;;;;5055559;28;20548;-81
2021/08/25 06:52:23;;;;;;;5.78;3.08;;;16.60;99.90;;;;;;5070338;28;20090;-81
2021/08/25 06:54:49;;;;;;;4.22;2.20;;;16.70;99.90;;;;;;5069739;28;20484;-82
2021/08/25 06:57:14;;;;;;;5.25;2.90;;;16.70;99.90;;;;;;5051746;28;20417;-81
2021/08/25 06:59:40;;;;;;;4.72;2.80;;;16.70;99.90;;;;;;5067273;28;20473;-81
2021/08/25 07:02:06;;;;;;;6.82;2.83;;;16.60;99.90;;;;;;5058955;28;20465;-82
2021/08/25 07:04:32;;;;;;;7.40;2.90;;;16.70;99.90;;;;;;5069737;28;20027;-82
2021/08/25 07:06:58;;;;;;;5.78;2.80;;;16.70;99.90;;;;;;5069861;28;20012;-82
2021/08/25 07:09:23;;;;;;;3.45;2.53;;;16.80;99.90;;;;;;5051721;28;20067;-82
2021/08/25 07:11:50;;;;;;;6.05;2.60;;;16.90;99.90;;;;;;5055433;28;20036;-82
2021/08/25 07:14:16;;;;;;;5.85;2.97;;;17.10;99.90;;;;;;5068750;28;20027;-82
2021/08/25 07:16:42;;;;;;;5.43;2.90;;;17.20;99.90;;;;;;5049453;28;20028;-82
2021/08/25 07:19:07;;;;;;;5.15;2.78;;;17.20;99.90;;;;;;5053350;28;20079;-82
2021/08/25 07:21:33;;;;;;;5.95;2.90;;;17.30;99.90;;;;;;5062888;28;20370;-83
2021/08/25 07:23:59;;;;;;;8.63;3.78;;;17.40;99.90;;;;;;5070521;28;20017;-83
2021/08/25 07:26:26;;;;;;;5.45;2.58;;;17.50;99.90;;;;;;5070360;28;20036;-83
2021/08/25 07:28:51;;;;;;;5.10;2.85;;;17.60;99.90;;;;;;5069771;28;20025;-83
2021/08/25 07:31:17;;;;;;;5.47;2.55;;;17.70;99.90;;;;;;5071189;28;20102;-83
2021/08/25 07:33:44;;;;;;;7.47;2.65;;;17.80;99.90;;;;;;5070547;28;20033;-83
2021/08/25 07:36:10;;;;;;;3.80;2.50;;;17.90;99.90;;;;;;5083912;28;20024;-83
2021/08/25 07:38:36;;;;;;;6.93;2.88;;;18.00;99.90;;;;;;5090037;28;20373;-83
2021/08/25 07:41:02;;;;;;;5.32;2.70;;;18.10;99.90;;;;;;5090031;28;20025;-82
2021/08/25 07:43:28;;;;;;;4.60;2.95;;;18.10;99.90;;;;;;5090105;28;20020;-83
2021/08/25 07:45:54;;;;;;;5.78;3.03;;;18.20;99.90;;;;;;5088879;28;20088;-83
2021/08/25 07:48:19;;;;;;;6.00;3.10;;;18.30;99.90;;;;;;5090192;28;20031;-83
2021/08/25 07:50:49;;;;;;;5.40;2.90;;;18.40;99.90;;;;;;5090116;28;20488;-83
2021/08/25 07:53:15;;;;;;;5.65;2.88;;;18.50;99.90;;;;;;5088804;28;20098;-83
2021/08/25 07:55:40;;;;;;;5.85;2.55;;;18.60;99.90;;;;;;5090248;28;20527;-83
2021/08/25 07:58:06;;;;;;;5.25;2.70;;;18.80;99.90;;;;;;5089873;28;20069;-83
2021/08/25 08:00:32;;;;;;;4.85;2.60;;;18.90;99.90;;;;;;5090106;28;20213;-83
2021/08/25 08:02:57;;;;;;;6.35;2.55;;;19.00;99.90;;;;;;5089753;28;20158;-83
2021/08/25 08:05:23;;;;;;;7.35;2.85;;;19.20;99.90;;;;;;5089460;28;20059;-83
2021/08/25 08:07:49;;;;;;;4.88;2.75;;;19.30;99.90;;;;;;5089565;28;20027;-83
2021/08/25 08:10:14;;;;;;;5.60;2.78;;;19.30;99.90;;;;;;5091610;28;20323;-83
2021/08/25 08:12:40;;;;;;;3.80;2.72;;;19.40;99.90;;;;;;5093344;28;20031;-83
2021/08/25 08:15:10;;;;;;;5.65;2.80;;;19.50;99.90;;;;;;5092150;28;20176;-83
2021/08/25 08:17:37;;;;;;;5.35;2.85;;;19.60;99.90;;;;;;5093177;28;20020;-83
2021/08/25 08:20:04;;;;;;;3.60;2.72;;;19.70;99.90;;;;;;5089597;28;20099;-83
2021/08/25 08:22:30;;;;;;;4.68;2.55;;;19.80;99.90;;;;;;5093016;28;20020;-83
2021/08/25 08:24:56;;;;;;;3.60;2.63;;;20.00;99.90;;;;;;5092913;28;20126;-83
2021/08/25 08:27:21;;;;;;;4.60;2.80;;;20.10;99.90;;;;;;5091493;28;20028;-83
2021/08/25 08:29:47;;;;;;;3.20;2.33;;;20.10;99.90;;;;;;5087464;28;20054;-83
2021/08/25 08:32:13;;;;;;;7.65;2.70;;;20.10;99.90;;;;;;5092490;28;20044;-83
2021/08/25 08:34:39;;;;;;;4.57;2.47;;;20.10;99.90;;;;;;5092694;28;20031;-83
2021/08/25 08:37:05;;;;;;;3.75;2.60;;;20.10;99.90;;;;;;5092697;28;20532;-83
2021/08/25 08:39:31;;;;;;;6.13;2.67;;;20.30;99.90;;;;;;5074525;28;20013;-83
2021/08/25 08:41:57;;;;;;;6.95;2.60;;;20.40;99.90;;;;;;5074653;28;20438;-83
2021/08/25 08:44:25;;;;;;;5.03;2.40;;;20.40;99.90;;;;;;5092800;28;20020;-83
2021/08/25 08:46:51;;;;;;;5.05;2.55;;;20.50;99.90;;;;;;5077435;28;20048;-83
2021/08/25 08:49:18;;;;;;;3.25;2.33;;;20.50;99.90;;;;;;5072744;28;20056;-83
2021/08/25 08:51:44;;;;;;;4.25;2.33;;;20.50;99.90;;;;;;5072218;28;20040;-83
2021/08/25 08:54:10;;;;;;;3.55;2.60;;;20.60;99.90;;;;;;5072223;28;20383;-83
2021/08/25 08:56:35;;;;;;;5.47;3.00;;;20.70;99.90;;;;;;5072408;28;20508;-83
2021/08/25 08:59:03;;;;;;;3.85;2.72;;;20.80;99.90;;;;;;5071824;28;20032;-83
2021/08/25 09:01:30;;;;;;;5.28;2.30;;;20.90;99.90;;;;;;5072378;28;20077;-83
2021/08/25 09:03:56;;;;;;;4.07;2.50;;;20.90;99.90;;;;;;5072054;28;20189;-83
2021/08/25 09:06:42;;;;;;;5.78;2.90;;;21.00;99.90;;;;;;5072187;28;20107;-84
2021/08/25 09:09:08;;;;;;;8.38;2.67;;;21.10;99.90;;;;;;5071812;28;20025;-83
2021/08/25 09:11:47;;;;;;;3.67;2.70;;;21.10;99.90;;;;;;5079801;28;20042;-83
2021/08/25 09:14:13;;;;;;;5.28;2.72;;;21.30;99.90;;;;;;5077621;28;20029;-83
2021/08/25 09:16:39;;;;;;;4.28;2.78;;;21.30;99.90;;;;;;5090876;28;20096;-83
2021/08/25 09:19:09;;;;;;;6.22;2.72;;;21.40;99.90;;;;;;5092344;28;20023;-83
2021/08/25 09:21:37;;;;;;;5.63;2.60;;;21.40;99.90;;;;;;5088705;28;20073;-84
2021/08/25 09:24:05;;;;;;;5.65;2.53;;;21.50;99.90;;;;;;5092154;28;20024;-83
2021/08/25 09:26:35;;;;;;;9.20;2.53;;;21.50;99.90;;;;;;5092146;28;20526;-83
2021/08/25 09:29:18;;;;;;;3.53;2.67;;;21.60;99.90;;;;;;5091312;28;20020;-83
2021/08/25 09:31:45;;;;;;;5.60;2.65;;;21.70;99.90;;;;;;5044430;28;20398;-83
2021/08/25 09:34:25;;;;;;;3.67;2.88;;;21.80;99.90;;;;;;5053026;28;20025;-83
2021/08/25 09:37:04;;;;;;;4.35;2.42;;;21.90;99.90;;;;;;5071838;28;20029;-83
2021/08/25 09:39:30;;;;;;;3.72;2.35;;;22.00;99.60;;;;;;5071496;28;20024;-83
2021/08/25 09:41:57;;;;;;;4.93;2.63;;;22.10;99.90;;;;;;5044422;28;20041;-83
2021/08/25 09:44:22;;;;;;;5.07;2.70;;;22.20;99.70;;;;;;5048801;28;20025;-83
2021/08/25 09:46:51;;;;;;;4.00;2.40;;;22.30;99.50;;;;;;5061397;28;20021;-83
2021/08/25 09:49:17;;;;;;;8.13;2.50;;;22.30;99.00;;;;;;5051790;28;20049;-83
2021/08/25 09:51:43;;;;;;;3.65;2.20;;;22.30;98.80;;;;;;5057226;28;20516;-83
2021/08/25 09:54:11;;;;;;;5.53;2.60;;;22.30;98.60;;;;;;5070046;28;20016;-83
2021/08/25 09:56:39;;;;;;;5.82;2.45;;;22.40;98.80;;;;;;5058839;28;20027;-83
2021/08/25 09:59:07;;;;;;;5.50;2.72;;;22.40;98.40;;;;;;5071340;28;20066;-83
2021/08/25 10:01:34;;;;;;;4.88;2.42;;;22.50;98.50;;;;;;5071207;28;20387;-83
2021/08/25 10:04:07;;;;;;;8.77;3.00;;;22.70;97.90;;;;;;5059168;28;20036;-83
2021/08/25 10:06:38;;;;;;;6.18;2.60;;;22.80;98.30;;;;;;5070025;28;20099;-83
2021/08/25 10:09:06;;;;;;;4.60;2.30;;;22.80;97.50;;;;;;5071357;28;20043;-83
2021/08/25 10:11:34;;;;;;;6.95;2.45;;;22.90;97.50;;;;;;5070869;28;20025;-83
2021/08/25 10:14:07;;;;;;;3.65;2.47;;;23.00;97.70;;;;;;5053290;28;20029;-83
2021/08/25 10:16:40;;;;;;;4.00;2.33;;;23.10;97.40;;;;;;5050587;28;20256;-83
2021/08/25 10:19:37;;;;;;;3.92;2.03;;;23.30;97.60;;;;;;5070975;28;20099;-83
2021/08/25 10:22:15;;;;;;;4.28;2.03;;;23.40;96.10;;;;;;5057085;28;20504;-83
2021/08/25 10:24:53;;;;;;;3.08;2.35;;;23.40;95.20;;;;;;5070786;28;20059;-83
2021/08/25 10:27:23;;;;;;;3.15;2.17;;;23.50;95.40;;;;;;5070883;28;20251;-84
2021/08/25 10:30:01;;;;;;;6.30;2.55;;;23.60;96.00;;;;;;5070292;28;20512;-83
2021/08/25 10:32:27;;;;;;;5.55;2.17;;;23.70;95.60;;;;;;5069660;28;20028;-84
2021/08/25 10:35:15;;;;;;;3.45;2.53;;;23.90;94.20;;;;;;5070201;28;20025;-83
2021/08/25 10:37:41;;;;;;;3.85;2.78;;;24.00;93.80;;;;;;5052717;28;20051;-83
2021/08/25 10:40:08;;;;;;;5.50;2.47;;;24.00;94.00;;;;;;5070405;28;20016;-83
2021/08/25 10:42:55;;;;;;;6.32;2.50;;;24.10;93.30;;;;;;5069890;28;20028;-84
2021/08/25 10:45:55;;;;;;;30.85;8.45;;;24.10;93.50;;;;;;5069261;28;20031;-83
2021/08/25 10:48:36;;;;;;;7.32;2.50;;;24.30;92.50;;;;;;5066786;28;20435;-83
2021/08/25 10:51:02;;;;;;;11.95;4.70;;;24.30;92.50;;;;;;5057624;28;20085;-83
2021/08/25 10:53:27;;;;;;;5.55;2.60;;;24.40;92.10;;;;;;5070190;28;20428;-83
2021/08/25 10:56:15;;;;;;;6.57;3.38;;;24.60;91.30;;;;;;5070203;28;20027;-82
2021/08/25 10:58:51;;;;;;;3.22;2.58;;;24.70;90.80;;;;;;5059802;28;20024;-83
2021/08/25 11:01:41;;;;;;;6.32;2.45;;;24.80;90.50;;;;;;5067130;28;20025;-83
2021/08/25 11:04:15;;;;;;;8.02;2.33;;;24.90;90.40;;;;;;5070238;28;20025;-83
2021/08/25 11:06:45;;;;;;;;;;;25.00;88.90;;;;;;5070500;28;20032;-83
2021/08/25 11:09:18;;;;;;;7.05;2.35;;;25.10;88.90;;;;;;5070078;28;19908;-83
2021/08/25 11:11:49;;;;;;;3.05;2.40;;;25.20;87.80;;;;;;5049610;28;20039;-82
2021/08/25 11:14:20;;;;;;;7.05;2.33;;;25.30;86.50;;;;;;5059386;28;20492;-83
2021/08/25 11:16:46;;;;;;;4.63;2.22;;;25.30;85.40;;;;;;5050769;28;20416;-83
2021/08/25 11:19:40;;;;;;;5.65;2.13;;;25.40;87.00;;;;;;5070009;28;20508;-82
2021/08/25 11:22:07;;;;;;;4.05;2.17;;;25.50;84.20;;;;;;5069716;28;20027;-82
2021/08/25 11:24:36;;;;;;;6.57;2.50;;;25.60;84.20;;;;;;5070236;28;20025;-82
2021/08/25 11:27:02;;;;;;;9.25;2.70;;;25.60;84.20;;;;;;5069692;28;20362;-82
2021/08/25 11:29:28;;;;;;;4.47;2.30;;;25.70;83.30;;;;;;5069593;28;20037;-83
2021/08/25 11:31:53;;;;;;;4.25;2.30;;;25.80;83.10;;;;;;5051508;28;20515;-82
2021/08/25 11:34:21;;;;;;;5.93;2.33;;;26.00;82.40;;;;;;5069842;28;20021;-82
2021/08/25 11:36:55;;;;;;;7.50;2.65;;;26.10;79.50;;;;;;5069788;28;20025;-82
2021/08/25 11:39:21;;;;;;;6.07;2.25;;;26.30;78.40;;;;;;5070121;28;20393;-82
2021/08/25 11:41:47;;;;;;;5.60;2.35;;;26.30;78.50;;;;;;5069705;28;20035;-82
2021/08/25 11:44:13;;;;;;;3.40;2.20;;;26.40;76.30;;;;;;5072501;28;20424;-82
2021/08/25 11:46:39;;;;;;;4.68;2.50;;;26.40;76.50;;;;;;5073649;28;20029;-82
2021/08/25 11:49:05;;;;;;;4.35;2.20;;;26.50;75.30;;;;;;5073523;28;20025;-82
2021/08/25 11:51:32;;;;;;;4.90;2.08;;;26.40;75.00;;;;;;5074019;28;20130;-82
2021/08/25 11:53:58;;;;;;;4.95;2.40;;;26.60;75.10;;;;;;5073662;28;20491;-82
2021/08/25 11:56:23;;;;;;;6.97;2.30;;;26.80;73.30;;;;;;5065229;28;20029;-82
2021/08/25 11:58:54;;;;;;;2.90;2.15;;;26.80;73.40;;;;;;5068278;28;20028;-83
2021/08/25 12:01:21;;;;;;;2.97;2.10;;;26.70;73.70;;;;;;5066339;28;20239;-82
2021/08/25 12:03:47;;;;;;;4.45;2.20;;;26.80;74.10;;;;;;5067202;28;20063;-82
2021/08/25 12:06:15;;;;;;;2.67;2.08;;;27.00;73.80;;;;;;5073321;28;20547;-82
2021/08/25 12:08:51;;;;;;;7.13;2.47;;;27.20;72.60;;;;;;5073540;28;20020;-83
2021/08/25 12:11:19;;;;;;;5.15;2.45;;;27.50;71.00;;;;;;5073223;28;20036;-82
2021/08/25 12:13:47;;;;;;;4.32;2.17;;;27.50;71.00;;;;;;5055286;28;20380;-82
2021/08/25 12:16:27;;;;;;;3.30;2.10;;;27.70;69.90;;;;;;5072972;28;20028;-82
2021/08/25 12:18:55;;;;;;;2.92;2.03;;;27.70;68.70;;;;;;5073241;28;20029;-83
2021/08/25 12:21:30;;;;;;;5.00;2.10;;;27.90;69.50;;;;;;5073257;28;20029;-82
2021/08/25 12:24:00;;;;;;;6.05;2.50;;;27.80;67.90;;;;;;5062481;28;20051;-82
2021/08/25 12:26:26;;;;;;;2.53;2.00;;;27.80;67.50;;;;;;5055270;28;21419;-83
2021/08/25 12:28:52;;;;;;;3.50;2.33;;;27.70;67.30;;;;;;5072953;28;20146;-83
2021/08/25 12:31:19;;;;;;;3.55;2.58;;;27.70;67.50;;;;;;5090709;28;20040;-82
2021/08/25 12:33:51;;;;;;;3.17;2.10;;;27.90;68.60;;;;;;5093367;28;20027;-83
2021/08/25 12:36:29;;;;;;;3.47;1.98;;;28.00;67.40;;;;;;5093152;28;20610;-82
2021/08/25 12:39:10;;;;;;;6.88;2.10;;;28.20;67.20;;;;;;5080583;28;20032;-82
2021/08/25 12:41:40;;;;;;;2.33;1.98;;;28.40;66.20;;;;;;5092983;28;20024;-83
2021/08/25 12:44:08;;;;;;;2.80;2.45;;;28.60;65.50;;;;;;5093316;28;20052;-83
2021/08/25 12:46:55;;;;;;;3.22;2.35;;;28.50;64.90;;;;;;5092727;28;20016;-83
2021/08/25 12:49:22;;;;;;;3.90;2.17;;;28.50;65.10;;;;;;5078942;28;20511;-82
2021/08/25 12:51:49;;;;;;;4.60;2.30;;;28.60;64.60;;;;;;5093374;28;20036;-83